createdAt,value
2018-06-04T00:00:26.989Z,95.93
2018-06-04T00:01:26.922Z,95.74
2018-06-04T00:02:26.845Z,95.54
2018-06-04T00:03:26.777Z,95.54
2018-06-04T00:04:26.710Z,95.45
2018-06-04T00:05:26.644Z,95.93
2018-06-04T00:06:26.563Z,95.74
2018-06-04T00:07:26.492Z,95.93
2018-06-04T00:08:26.426Z,95.54
2018-06-04T00:09:26.353Z,95.64
2018-06-04T00:10:26.279Z,96.03
2018-06-04T00:11:26.208Z,96.03
2018-06-04T00:12:26.137Z,95.84
2018-06-04T00:13:26.065Z,96.41
2018-06-04T00:14:25.996Z,96.61
2018-06-04T00:15:25.925Z,96.80
2018-06-04T00:16:25.852Z,96.41
2018-06-04T00:17:25.782Z,96.41
2018-06-04T00:18:25.709Z,96.41
2018-06-04T00:19:25.650Z,96.03
2018-06-04T00:20:25.567Z,96.70
2018-06-04T00:21:25.499Z,96.99
2018-06-04T00:22:25.426Z,96.51
2018-06-04T00:23:25.356Z,96.51
2018-06-04T00:24:25.281Z,96.51
2018-06-04T00:25:25.213Z,96.61
2018-06-04T00:26:25.140Z,96.89
2018-06-04T00:27:25.069Z,96.32
2018-06-04T00:28:24.997Z,96.41
2018-06-04T00:29:24.932Z,96.75
2018-06-04T00:30:24.860Z,96.80
2018-06-04T00:31:24.785Z,96.75
2018-06-04T00:32:24.714Z,97.28
2018-06-04T00:33:24.645Z,96.56
2018-06-04T00:34:24.572Z,97.24
2018-06-04T00:35:24.501Z,97.72
2018-06-04T00:36:24.427Z,97.81
2018-06-04T00:37:24.356Z,97.72
2018-06-04T00:38:24.290Z,98.10
2018-06-04T00:39:24.213Z,96.94
2018-06-04T00:40:24.148Z,97.52
2018-06-04T00:41:24.071Z,98.10
2018-06-04T00:42:24.002Z,98.29
2018-06-04T00:43:23.929Z,98.68
2018-06-04T00:44:23.855Z,98.10
2018-06-04T00:45:23.790Z,97.91
2018-06-04T00:46:23.714Z,98.10
2018-06-04T00:47:23.646Z,98.10
2018-06-04T00:48:23.573Z,98.29
2018-06-04T00:49:23.514Z,98.49
2018-06-04T00:50:23.428Z,96.94
2018-06-04T00:51:23.359Z,96.99
2018-06-04T00:52:23.291Z,95.64
2018-06-04T00:53:23.212Z,95.21
2018-06-04T00:54:23.142Z,94.15
2018-06-04T00:55:23.072Z,92.42
2018-06-04T00:56:23.000Z,91.46
2018-06-04T00:57:22.926Z,88.85
2018-06-04T00:58:22.857Z,88.95
2018-06-04T00:59:22.785Z,88.85
2018-06-04T01:00:22.721Z,88.09
2018-06-04T01:01:22.647Z,88.85
2018-06-04T01:02:22.570Z,88.47
2018-06-04T01:03:22.499Z,87.70
2018-06-04T01:04:22.436Z,85.93
2018-06-04T01:05:22.360Z,84.77
2018-06-04T01:06:22.281Z,83.23
2018-06-04T01:07:22.210Z,80.35
2018-06-04T01:08:22.138Z,79.67
2018-06-04T01:09:22.066Z,78.81
2018-06-04T01:10:21.995Z,78.71
2018-06-04T01:11:21.926Z,77.65
2018-06-04T01:12:21.854Z,78.77
2018-06-04T01:13:21.787Z,78.81
2018-06-04T01:14:21.726Z,78.86
2018-06-04T01:15:21.635Z,79.10
2018-06-04T01:16:21.564Z,80.15
2018-06-04T01:17:21.499Z,79.63
2018-06-04T01:18:21.420Z,78.71
2018-06-04T01:19:21.346Z,79.10
2018-06-04T01:20:21.273Z,77.65
2018-06-04T01:21:21.200Z,77.61
2018-06-04T01:22:21.132Z,77.33
2018-06-04T01:23:21.058Z,75.98
2018-06-04T01:24:20.984Z,75.79
2018-06-04T01:25:20.916Z,75.69
2018-06-04T01:26:20.850Z,75.59
2018-06-04T01:27:20.819Z,73.86
2018-06-04T01:28:20.695Z,73.00
2018-06-04T01:29:20.633Z,73.28
2018-06-04T01:30:20.555Z,70.98
2018-06-04T01:31:20.481Z,70.21
2018-06-04T01:32:20.406Z,71.55
2018-06-04T01:33:20.336Z,71.26
2018-06-04T01:34:20.263Z,71.17
2018-06-04T01:35:20.195Z,71.17
2018-06-04T01:36:20.118Z,71.26
2018-06-04T01:37:20.045Z,71.36
2018-06-04T01:38:19.973Z,70.40
2018-06-04T01:39:19.900Z,70.88
2018-06-04T01:40:19.827Z,70.50
2018-06-04T01:41:19.754Z,70.40
2018-06-04T01:42:19.692Z,70.11
2018-06-04T01:43:19.613Z,71.17
2018-06-04T01:44:19.537Z,70.50
2018-06-04T01:45:19.465Z,68.96
2018-06-04T01:46:19.403Z,69.73
2018-06-04T01:47:19.323Z,69.92
2018-06-04T01:48:19.257Z,69.92
2018-06-04T01:49:19.176Z,70.68
2018-06-04T01:50:19.110Z,70.01
2018-06-04T01:51:19.046Z,70.78
2018-06-04T01:52:18.959Z,70.11
2018-06-04T01:53:18.887Z,69.92
2018-06-04T01:54:18.816Z,66.74
2018-06-04T01:55:18.745Z,66.65
2018-06-04T01:56:18.671Z,64.22
2018-06-04T01:57:18.604Z,64.89
2018-06-04T01:58:18.525Z,64.12
2018-06-04T01:59:18.453Z,63.06
2018-06-04T02:00:18.381Z,63.45
2018-06-04T02:01:18.306Z,62.77
2018-06-04T02:02:18.234Z,63.92
2018-06-04T02:03:18.163Z,64.43
2018-06-04T02:04:18.087Z,64.02
2018-06-04T02:05:18.014Z,63.15
2018-06-04T02:06:17.944Z,62.90
2018-06-04T02:07:17.873Z,63.28
2018-06-04T02:08:17.798Z,64.43
2018-06-04T02:09:17.727Z,64.31
2018-06-04T02:10:17.654Z,63.76
2018-06-04T02:11:17.580Z,65.01
2018-06-04T02:12:17.509Z,62.41
2018-06-04T02:13:17.433Z,62.77
2018-06-04T02:14:17.362Z,62.48
2018-06-04T02:15:17.289Z,61.04
2018-06-04T02:16:17.219Z,60.85
2018-06-04T02:17:17.145Z,59.69
2018-06-04T02:18:17.070Z,60.08
2018-06-04T02:19:16.999Z,59.89
2018-06-04T02:20:16.926Z,60.08
2018-06-04T02:21:16.851Z,59.99
2018-06-04T02:22:16.780Z,60.85
2018-06-04T02:23:16.709Z,59.69
2018-06-04T02:24:16.638Z,59.02
2018-06-04T02:25:16.564Z,58.92
2018-06-04T02:26:16.489Z,58.64
2018-06-04T02:27:16.418Z,58.92
2018-06-04T02:28:16.363Z,57.68
2018-06-04T02:29:16.273Z,59.12
2018-06-04T02:30:16.199Z,58.92
2018-06-04T02:31:16.126Z,57.77
2018-06-04T02:32:16.052Z,58.54
2018-06-04T02:33:15.989Z,59.12
2018-06-04T02:34:15.912Z,60.08
2018-06-04T02:35:15.836Z,59.69
2018-06-04T02:36:15.768Z,59.99
2018-06-04T02:37:15.690Z,59.41
2018-06-04T02:38:15.619Z,58.64
2018-06-04T02:39:15.544Z,57.87
2018-06-04T02:40:15.469Z,58.64
2018-06-04T02:41:15.400Z,57.97
2018-06-04T02:42:15.334Z,57.58
2018-06-04T02:43:15.252Z,55.85
2018-06-04T02:44:15.181Z,56.04
2018-06-04T02:45:15.106Z,56.04
2018-06-04T02:46:15.041Z,56.43
2018-06-04T02:47:14.963Z,54.50
2018-06-04T02:48:14.889Z,54.77
2018-06-04T02:49:14.817Z,53.32
2018-06-04T02:50:14.836Z,52.17
2018-06-04T02:51:14.678Z,50.92
2018-06-04T02:52:14.598Z,50.34
2018-06-04T02:53:14.526Z,49.48
2018-06-04T02:54:14.450Z,48.90
2018-06-04T02:55:14.382Z,49.57
2018-06-04T02:56:14.304Z,48.81
2018-06-04T02:57:14.232Z,49.29
2018-06-04T02:58:14.161Z,49.10
2018-06-04T02:59:14.088Z,49.96
2018-06-04T03:00:14.012Z,50.34
2018-06-04T03:01:13.940Z,50.92
2018-06-04T03:02:13.866Z,50.92
2018-06-04T03:03:13.792Z,50.92
2018-06-04T03:04:13.728Z,52.17
2018-06-04T03:05:13.651Z,50.44
2018-06-04T03:06:13.577Z,48.90
2018-06-04T03:07:13.500Z,50.63
2018-06-04T03:08:13.439Z,49.87
2018-06-04T03:09:13.355Z,50.92
2018-06-04T03:10:13.286Z,50.92
2018-06-04T03:11:13.209Z,50.73
2018-06-04T03:12:13.136Z,50.34
2018-06-04T03:13:13.063Z,50.05
2018-06-04T03:14:12.992Z,49.67
2018-06-04T03:15:12.919Z,49.29
2018-06-04T03:16:12.846Z,50.25
2018-06-04T03:17:12.772Z,49.29
2018-06-04T03:18:12.698Z,47.66
2018-06-04T03:19:12.625Z,48.52
2018-06-04T03:20:12.551Z,48.61
2018-06-04T03:21:12.479Z,49.67
2018-06-04T03:22:12.406Z,48.71
2018-06-04T03:23:12.338Z,47.56
2018-06-04T03:24:12.257Z,48.81
2018-06-04T03:25:12.209Z,48.71
2018-06-04T03:26:12.112Z,48.71
2018-06-04T03:27:12.041Z,47.66
2018-06-04T03:28:11.966Z,48.61
2018-06-04T03:29:11.896Z,48.04
2018-06-04T03:30:11.820Z,49.87
2018-06-04T03:31:11.749Z,49.38
2018-06-04T03:32:11.674Z,49.87
2018-06-04T03:33:11.600Z,48.04
2018-06-04T03:34:11.528Z,50.25
2018-06-04T03:35:11.454Z,49.87
2018-06-04T03:36:11.380Z,48.64
2018-06-04T03:37:11.309Z,50.92
2018-06-04T03:38:11.237Z,49.77
2018-06-04T03:39:11.168Z,50.37
2018-06-04T03:40:11.091Z,49.87
2018-06-04T03:41:11.018Z,49.57
2018-06-04T03:42:10.944Z,49.48
2018-06-04T03:43:10.908Z,51.11
2018-06-04T03:44:10.797Z,50.73
2018-06-04T03:45:10.725Z,50.25
2018-06-04T03:46:10.657Z,49.67
2018-06-04T03:47:10.579Z,49.00
2018-06-04T03:48:10.510Z,49.48
2018-06-04T03:49:10.430Z,49.41
2018-06-04T03:50:10.362Z,49.96
2018-06-04T03:51:10.287Z,49.87
2018-06-04T03:52:10.212Z,51.02
2018-06-04T03:53:10.191Z,51.04
2018-06-04T03:54:10.071Z,52.00
2018-06-04T03:55:09.999Z,50.46
2018-06-04T03:56:09.919Z,51.81
2018-06-04T03:57:09.847Z,53.25
2018-06-04T03:58:09.775Z,52.58
2018-06-04T03:59:09.701Z,52.29
2018-06-04T04:00:09.629Z,53.64
2018-06-04T04:01:09.564Z,52.97
2018-06-04T04:02:09.481Z,53.92
2018-06-04T04:03:09.411Z,53.83
2018-06-04T04:04:09.344Z,54.22
2018-06-04T04:05:09.272Z,52.20
2018-06-04T04:06:09.190Z,50.95
2018-06-04T04:07:09.123Z,55.27
2018-06-04T04:08:09.053Z,55.66
2018-06-04T04:09:08.974Z,55.85
2018-06-04T04:10:08.900Z,54.89
2018-06-04T04:11:08.827Z,54.89
2018-06-04T04:12:08.753Z,53.54
2018-06-04T04:13:08.690Z,52.39
2018-06-04T04:14:08.608Z,50.66
2018-06-04T04:15:08.534Z,54.69
2018-06-04T04:16:08.461Z,54.69
2018-06-04T04:17:08.389Z,55.66
2018-06-04T04:18:08.322Z,56.23
2018-06-04T04:19:08.244Z,56.33
2018-06-04T04:20:08.175Z,54.72
2018-06-04T04:21:08.098Z,57.13
2018-06-04T04:22:08.035Z,55.76
2018-06-04T04:23:07.969Z,52.12
2018-06-04T04:24:07.882Z,53.76
2018-06-04T04:25:07.814Z,54.53
2018-06-04T04:26:07.736Z,54.14
2018-06-04T04:27:07.664Z,54.34
2018-06-04T04:28:07.593Z,52.70
2018-06-04T04:29:07.520Z,53.19
2018-06-04T04:30:07.447Z,52.80
2018-06-04T04:31:07.381Z,53.47
2018-06-04T04:32:07.300Z,53.19
2018-06-04T04:33:07.228Z,53.57
2018-06-04T04:34:07.156Z,53.38
2018-06-04T04:35:07.088Z,54.53
2018-06-04T04:36:07.010Z,54.53
2018-06-04T04:37:06.940Z,53.96
2018-06-04T04:38:06.865Z,53.76
2018-06-04T04:39:06.793Z,54.82
2018-06-04T04:40:06.727Z,53.38
2018-06-04T04:41:06.649Z,53.38
2018-06-04T04:42:06.576Z,52.99
2018-06-04T04:43:06.506Z,56.26
2018-06-04T04:44:06.429Z,55.59
2018-06-04T04:45:06.357Z,57.32
2018-06-04T04:46:06.284Z,56.16
2018-06-04T04:47:06.214Z,56.26
2018-06-04T04:48:06.144Z,54.91
2018-06-04T04:49:06.069Z,57.51
2018-06-04T04:50:05.996Z,58.18
2018-06-04T04:51:05.924Z,58.70
2018-06-04T04:52:05.853Z,57.83
2018-06-04T04:53:05.784Z,56.67
2018-06-04T04:54:05.710Z,59.15
2018-06-04T04:55:05.636Z,59.92
2018-06-04T04:56:05.562Z,60.24
2018-06-04T04:57:05.491Z,59.85
2018-06-04T04:58:05.420Z,60.42
2018-06-04T04:59:05.346Z,59.85
2018-06-04T05:00:05.273Z,59.37
2018-06-04T05:01:05.203Z,59.27
2018-06-04T05:02:05.134Z,58.50
2018-06-04T05:03:05.059Z,60.81
2018-06-04T05:04:04.984Z,61.58
2018-06-04T05:05:04.918Z,60.24
2018-06-04T05:06:04.868Z,61.10
2018-06-04T05:07:04.772Z,58.89
2018-06-04T05:08:04.698Z,57.92
2018-06-04T05:09:04.627Z,59.08
2018-06-04T05:10:04.554Z,58.70
2018-06-04T05:11:04.488Z,58.22
2018-06-04T05:12:04.407Z,57.83
2018-06-04T05:13:04.335Z,56.96
2018-06-04T05:14:04.264Z,57.83
2018-06-04T05:15:04.193Z,58.12
2018-06-04T05:16:04.120Z,58.98
2018-06-04T05:17:04.047Z,58.89
2018-06-04T05:18:03.976Z,56.58
2018-06-04T05:19:03.906Z,57.73
2018-06-04T05:20:03.831Z,57.45
2018-06-04T05:21:03.763Z,56.58
2018-06-04T05:22:03.686Z,59.59
2018-06-04T05:23:03.616Z,59.17
2018-06-04T05:24:03.546Z,59.11
2018-06-04T05:25:03.478Z,60.46
2018-06-04T05:26:03.398Z,61.22
2018-06-04T05:27:03.336Z,62.00
2018-06-04T05:28:03.255Z,62.67
2018-06-04T05:29:03.188Z,61.90
2018-06-04T05:30:03.111Z,59.88
2018-06-04T05:31:03.058Z,59.88
2018-06-04T05:32:02.966Z,60.17
2018-06-04T05:33:02.901Z,60.94
2018-06-04T05:34:02.823Z,60.36
2018-06-04T05:35:02.751Z,59.30
2018-06-04T05:36:02.680Z,60.07
2018-06-04T05:37:02.641Z,57.76
2018-06-04T05:38:02.535Z,61.22
2018-06-04T05:39:02.468Z,63.15
2018-06-04T05:40:02.392Z,63.57
2018-06-04T05:41:02.337Z,64.73
2018-06-04T05:42:02.294Z,64.25
2018-06-04T05:43:02.710Z,60.39
2018-06-04T05:44:02.104Z,63.09
2018-06-04T05:45:02.033Z,64.53
2018-06-04T05:46:01.964Z,65.30
2018-06-04T05:47:01.891Z,65.11
2018-06-04T05:48:01.819Z,65.98
2018-06-04T05:49:01.747Z,64.53
2018-06-04T05:50:01.735Z,63.28
2018-06-04T05:51:01.605Z,63.09
2018-06-04T05:52:01.535Z,64.37
2018-06-04T05:53:01.460Z,66.20
2018-06-04T05:54:01.395Z,64.18
2018-06-04T05:55:01.320Z,65.24
2018-06-04T05:56:01.257Z,66.01
2018-06-04T05:57:01.176Z,66.78
2018-06-04T05:58:01.103Z,65.05
2018-06-04T05:59:01.033Z,66.59
2018-06-04T06:00:00.960Z,68.04
2018-06-04T06:01:00.890Z,68.13
2018-06-04T06:02:00.818Z,68.80
2018-06-04T06:03:00.752Z,66.88
2018-06-04T06:04:00.677Z,71.50
2018-06-04T06:05:00.607Z,69.96
2018-06-04T06:06:00.549Z,71.31
2018-06-04T06:07:00.467Z,70.06
2018-06-04T06:08:00.390Z,68.65
2018-06-04T06:09:00.318Z,68.84
2018-06-04T06:10:00.250Z,71.34
2018-06-04T06:11:00.188Z,70.96
2018-06-04T06:12:00.106Z,71.15
2018-06-04T06:13:00.036Z,73.18
2018-06-04T06:13:59.967Z,73.47
2018-06-04T06:14:59.891Z,74.43
2018-06-04T06:15:59.862Z,74.62
2018-06-04T06:16:59.751Z,74.24
2018-06-04T06:17:59.680Z,73.85
2018-06-04T06:18:59.609Z,72.79
2018-06-04T06:19:59.535Z,71.73
2018-06-04T06:20:59.467Z,71.34
2018-06-04T06:21:59.395Z,74.82
2018-06-04T06:22:59.326Z,75.40
2018-06-04T06:23:59.254Z,74.43
2018-06-04T06:24:59.182Z,73.95
2018-06-04T06:25:59.117Z,73.85
2018-06-04T06:26:59.042Z,74.24
2018-06-04T06:27:58.984Z,74.08
2018-06-04T06:28:58.900Z,73.41
2018-06-04T06:29:58.837Z,71.58
2018-06-04T06:30:58.757Z,74.57
2018-06-04T06:31:58.689Z,72.25
2018-06-04T06:32:58.618Z,74.18
2018-06-04T06:33:58.544Z,73.89
2018-06-04T06:34:58.479Z,75.34
2018-06-04T06:35:58.419Z,73.21
2018-06-04T06:36:58.331Z,74.08
2018-06-04T06:37:58.264Z,72.92
2018-06-04T06:38:58.191Z,73.11
2018-06-04T06:39:58.120Z,74.37
2018-06-04T06:40:58.051Z,75.43
2018-06-04T06:41:57.981Z,73.60
2018-06-04T06:42:57.919Z,73.54
2018-06-04T06:43:57.839Z,75.27
2018-06-04T06:44:57.766Z,74.79
2018-06-04T06:45:57.698Z,75.67
2018-06-04T06:46:57.626Z,75.85
2018-06-04T06:47:57.581Z,74.51
2018-06-04T06:48:57.484Z,75.95
2018-06-04T06:49:57.413Z,73.83
2018-06-04T06:50:57.343Z,78.75
2018-06-04T06:51:57.270Z,78.27
2018-06-04T06:52:57.204Z,79.43
2018-06-04T06:53:57.131Z,80.00
2018-06-04T06:54:57.063Z,75.95
2018-06-04T06:55:56.991Z,76.92
2018-06-04T06:56:56.925Z,76.82
2018-06-04T06:57:56.850Z,76.24
2018-06-04T06:58:56.781Z,77.78
2018-06-04T06:59:56.709Z,78.17
2018-06-04T07:00:56.647Z,78.46
2018-06-04T07:01:56.588Z,78.11
2018-06-04T07:02:56.498Z,82.26
2018-06-04T07:03:56.428Z,80.82
2018-06-04T07:04:56.355Z,81.30
2018-06-04T07:05:56.286Z,81.11
2018-06-04T07:06:56.214Z,80.14
2018-06-04T07:07:56.145Z,79.08
2018-06-04T07:08:56.073Z,80.72
2018-06-04T07:09:56.005Z,80.53
2018-06-04T07:10:55.937Z,82.26
2018-06-04T07:11:55.864Z,80.82
2018-06-04T07:12:55.794Z,78.73
2018-06-04T07:13:55.724Z,80.38
2018-06-04T07:14:55.653Z,80.95
2018-06-04T07:15:55.585Z,82.11
2018-06-04T07:16:55.513Z,83.37
2018-06-04T07:17:55.446Z,82.69
2018-06-04T07:18:55.373Z,83.37
2018-06-04T07:19:55.320Z,83.27
2018-06-04T07:20:55.236Z,81.05
2018-06-04T07:21:55.164Z,82.89
2018-06-04T07:22:55.104Z,85.88
2018-06-04T07:23:55.038Z,84.33
2018-06-04T07:24:54.953Z,82.98
2018-06-04T07:25:54.883Z,83.95
2018-06-04T07:26:54.813Z,83.95
2018-06-04T07:27:54.746Z,85.59
2018-06-04T07:28:54.679Z,87.62
2018-06-04T07:29:54.603Z,87.62
2018-06-04T07:30:54.535Z,85.93
2018-06-04T07:31:54.463Z,85.73
2018-06-04T07:32:54.401Z,85.44
2018-06-04T07:33:54.368Z,85.05
2018-06-04T07:34:54.324Z,84.86
2018-06-04T07:35:54.183Z,84.19
2018-06-04T07:36:54.122Z,86.11
2018-06-04T07:37:54.045Z,86.11
2018-06-04T07:38:53.975Z,88.43
2018-06-04T07:39:53.904Z,88.39
2018-06-04T07:40:53.837Z,90.47
2018-06-04T07:41:53.767Z,90.61
2018-06-04T07:42:53.696Z,91.58
2018-06-04T07:43:53.626Z,91.86
2018-06-04T07:44:53.556Z,90.32
2018-06-04T07:45:53.502Z,91.96
2018-06-04T07:46:53.422Z,90.99
2018-06-04T07:47:53.347Z,90.32
2018-06-04T07:48:53.281Z,90.90
2018-06-04T07:49:53.222Z,90.90
2018-06-04T07:50:53.142Z,88.77
2018-06-04T07:51:53.070Z,88.87
2018-06-04T07:52:52.999Z,90.12
2018-06-04T07:53:52.937Z,90.75
2018-06-04T07:54:52.864Z,89.88
2018-06-04T07:55:52.793Z,90.36
2018-06-04T07:56:52.734Z,90.94
2018-06-04T07:57:52.656Z,92.10
2018-06-04T07:58:52.585Z,91.72
2018-06-04T07:59:52.516Z,93.46
2018-06-04T08:00:52.523Z,91.91
2018-06-04T08:01:52.378Z,92.00
2018-06-04T08:02:52.311Z,93.07
2018-06-04T08:03:52.237Z,92.40
2018-06-04T08:04:52.173Z,92.49
2018-06-04T08:05:52.105Z,92.20
2018-06-04T08:06:52.033Z,94.04
2018-06-04T08:07:51.963Z,93.36
2018-06-04T08:08:51.925Z,94.33
2018-06-04T08:09:51.839Z,95.49
2018-06-04T08:10:51.755Z,95.39
2018-06-04T08:11:51.685Z,95.54
2018-06-04T08:12:51.627Z,94.43
2018-06-04T08:13:51.565Z,95.20
2018-06-04T08:14:51.476Z,94.09
2018-06-04T08:15:51.407Z,94.47
2018-06-04T08:16:51.336Z,93.89
2018-06-04T08:17:51.273Z,93.89
2018-06-04T08:18:51.204Z,93.99
2018-06-04T08:19:51.130Z,93.12
2018-06-04T08:20:51.064Z,92.15
2018-06-04T08:21:50.992Z,95.54
2018-06-04T08:22:50.929Z,94.47
2018-06-04T08:23:50.912Z,93.89
2018-06-04T08:24:50.785Z,93.35
2018-06-04T08:25:50.716Z,93.70
2018-06-04T08:26:50.646Z,93.35
2018-06-04T08:27:50.577Z,93.55
2018-06-04T08:28:50.512Z,93.65
2018-06-04T08:29:50.439Z,92.97
2018-06-04T08:30:50.372Z,93.94
2018-06-04T08:31:50.310Z,93.16
2018-06-04T08:32:50.237Z,92.97
2018-06-04T08:33:50.164Z,93.94
2018-06-04T08:34:50.097Z,92.77
2018-06-04T08:35:50.033Z,92.87
2018-06-04T08:36:49.958Z,93.26
2018-06-04T08:37:49.890Z,93.35
2018-06-04T08:38:49.826Z,92.24
2018-06-04T08:39:49.753Z,93.70
2018-06-04T08:40:49.682Z,91.95
2018-06-04T08:41:49.616Z,92.33
2018-06-04T08:42:49.553Z,93.40
2018-06-04T08:43:49.480Z,92.86
2018-06-04T08:44:49.410Z,92.82
2018-06-04T08:45:49.386Z,92.86
2018-06-04T08:46:49.288Z,92.29
2018-06-04T08:47:49.207Z,92.58
2018-06-04T08:48:49.135Z,91.89
2018-06-04T08:49:49.069Z,93.74
2018-06-04T08:50:49.000Z,92.29
2018-06-04T08:51:48.930Z,92.77
2018-06-04T08:52:48.865Z,90.06
2018-06-04T08:53:48.800Z,88.99
2018-06-04T08:54:48.728Z,89.47
2018-06-04T08:55:48.658Z,90.44
2018-06-04T08:56:48.590Z,90.34
2018-06-04T08:57:48.523Z,89.37
2018-06-04T08:58:48.456Z,88.70
2018-06-04T08:59:48.383Z,87.63
2018-06-04T09:00:48.317Z,86.76
2018-06-04T09:01:48.249Z,86.27
2018-06-04T09:02:48.187Z,87.15
2018-06-04T09:03:48.120Z,86.08
2018-06-04T09:04:48.046Z,87.73
2018-06-04T09:05:47.978Z,84.82
2018-06-04T09:06:47.909Z,85.02
2018-06-04T09:07:47.840Z,85.15
2018-06-04T09:08:47.772Z,86.99
2018-06-04T09:09:47.732Z,87.96
2018-06-04T09:10:47.638Z,85.54
2018-06-04T09:11:47.573Z,82.92
2018-06-04T09:12:47.505Z,83.02
2018-06-04T09:13:47.433Z,83.80
2018-06-04T09:14:47.369Z,85.93
2018-06-04T09:15:47.377Z,86.51
2018-06-04T09:16:47.229Z,85.06
2018-06-04T09:17:47.169Z,80.88
2018-06-04T09:18:47.095Z,82.34
2018-06-04T09:19:47.025Z,82.44
2018-06-04T09:20:46.965Z,83.47
2018-06-04T09:21:46.919Z,83.80
2018-06-04T09:22:46.822Z,82.63
2018-06-04T09:23:46.756Z,82.59
2018-06-04T09:24:46.698Z,80.69
2018-06-04T09:25:46.621Z,83.80
2018-06-04T09:26:46.550Z,84.77
2018-06-04T09:27:46.485Z,84.28
2018-06-04T09:28:46.418Z,84.67
2018-06-04T09:29:46.349Z,77.82
2018-06-04T09:30:46.282Z,80.69
2018-06-04T09:31:46.214Z,82.28
2018-06-04T09:32:46.160Z,84.61
2018-06-04T09:33:46.080Z,78.11
2018-06-04T09:34:46.014Z,77.04
2018-06-04T09:35:45.942Z,67.83
2018-06-04T09:36:45.876Z,71.90
2018-06-04T09:37:45.815Z,74.91
2018-06-04T09:38:45.746Z,78.21
2018-06-04T09:39:45.679Z,82.87
2018-06-04T09:40:45.605Z,83.10
2018-06-04T09:41:45.537Z,82.52
2018-06-04T09:42:45.470Z,82.13
2018-06-04T09:43:45.405Z,71.26
2018-06-04T09:44:45.335Z,70.00
2018-06-04T09:45:45.267Z,67.86
2018-06-04T09:46:45.200Z,68.99
2018-06-04T09:47:45.132Z,74.85
2018-06-04T09:48:45.063Z,76.56
2018-06-04T09:49:44.997Z,72.52
2018-06-04T09:50:44.929Z,78.73
2018-06-04T09:51:44.863Z,76.11
2018-06-04T09:52:44.793Z,77.28
2018-06-04T09:53:44.739Z,74.75
2018-06-04T09:54:44.670Z,77.28
2018-06-04T09:55:44.592Z,72.81
2018-06-04T09:56:44.527Z,75.14
2018-06-04T09:57:44.457Z,70.67
2018-06-04T09:58:44.389Z,68.93
2018-06-04T09:59:44.321Z,74.21
2018-06-04T10:00:44.288Z,77.08
2018-06-04T10:01:44.186Z,76.92
2018-06-04T10:02:44.120Z,75.27
2018-06-04T10:03:44.052Z,67.02
2018-06-04T10:04:44.045Z,64.40
2018-06-04T10:05:43.931Z,58.47
2018-06-04T10:06:43.849Z,56.43
2018-06-04T10:07:43.782Z,57.40
2018-06-04T10:08:43.713Z,60.51
2018-06-04T10:09:43.648Z,60.71
2018-06-04T10:10:43.580Z,69.15
2018-06-04T10:11:43.512Z,61.29
2018-06-04T10:12:43.445Z,63.13
2018-06-04T10:13:43.379Z,68.48
2018-06-04T10:14:43.312Z,69.54
2018-06-04T10:15:43.249Z,66.53
2018-06-04T10:16:43.179Z,66.63
2018-06-04T10:17:43.110Z,64.30
2018-06-04T10:18:43.043Z,64.30
2018-06-04T10:19:42.974Z,60.41
2018-06-04T10:20:42.907Z,56.92
2018-06-04T10:21:42.839Z,55.94
2018-06-04T10:22:42.773Z,54.39
2018-06-04T10:23:42.705Z,64.59
2018-06-04T10:24:42.639Z,75.76
2018-06-04T10:25:42.574Z,77.31
2018-06-04T10:26:42.507Z,66.86
2018-06-04T10:27:42.437Z,60.31
2018-06-04T10:28:42.372Z,55.65
2018-06-04T10:29:42.303Z,54.42
2018-06-04T10:30:42.262Z,55.58
2018-06-04T10:31:42.168Z,62.26
2018-06-04T10:32:42.101Z,61.22
2018-06-04T10:33:42.068Z,62.10
2018-06-04T10:34:41.966Z,61.12
2018-06-04T10:35:41.914Z,58.21
2018-06-04T10:36:41.838Z,60.25
2018-06-04T10:37:41.765Z,60.15
2018-06-04T10:38:41.697Z,57.04
2018-06-04T10:39:41.629Z,53.35
2018-06-04T10:40:41.566Z,57.62
2018-06-04T10:41:41.497Z,61.35
2018-06-04T10:42:41.431Z,54.93
2018-06-04T10:43:41.366Z,53.57
2018-06-04T10:44:41.323Z,54.64
2018-06-04T10:45:41.232Z,52.11
2018-06-04T10:46:41.176Z,49.49
2018-06-04T10:47:41.094Z,50.95
2018-06-04T10:48:41.031Z,57.07
2018-06-04T10:49:40.960Z,54.35
2018-06-04T10:50:40.891Z,52.72
2018-06-04T10:51:40.827Z,49.10
2018-06-04T10:52:40.759Z,50.36
2018-06-04T10:53:40.693Z,54.57
2018-06-04T10:54:40.637Z,51.17
2018-06-04T10:55:40.558Z,48.83
2018-06-04T10:56:40.492Z,49.90
2018-06-04T10:57:40.425Z,51.07
2018-06-04T10:58:40.359Z,53.89
2018-06-04T10:59:40.290Z,52.72
2018-06-04T11:00:40.226Z,55.18
2018-06-04T11:01:40.159Z,55.47
2018-06-04T11:02:40.093Z,48.27
2018-06-04T11:03:40.028Z,47.10
2018-06-04T11:04:39.960Z,46.23
2018-06-04T11:05:39.892Z,48.46
2018-06-04T11:06:39.826Z,46.32
2018-06-04T11:07:39.758Z,46.23
2018-06-04T11:08:39.690Z,47.69
2018-06-04T11:09:39.629Z,46.32
2018-06-04T11:10:39.560Z,43.99
2018-06-04T11:11:39.495Z,44.69
2018-06-04T11:12:39.425Z,45.08
2018-06-04T11:13:39.358Z,44.01
2018-06-04T11:14:39.294Z,46.93
2018-06-04T11:15:39.228Z,45.37
2018-06-04T11:16:39.163Z,45.67
2018-06-04T11:17:39.098Z,46.83
2018-06-04T11:18:39.028Z,46.05
2018-06-04T11:19:38.984Z,47.22
2018-06-04T11:20:38.893Z,47.92
2018-06-04T11:21:38.827Z,49.39
2018-06-04T11:22:38.761Z,50.46
2018-06-04T11:23:38.695Z,48.51
2018-06-04T11:24:38.683Z,48.61
2018-06-04T11:25:38.620Z,55.46
2018-06-04T11:26:38.496Z,48.54
2018-06-04T11:27:38.428Z,46.76
2018-06-04T11:28:38.361Z,44.23
2018-06-04T11:29:38.349Z,45.00
2018-06-04T11:30:38.230Z,44.40
2018-06-04T11:31:38.219Z,43.23
2018-06-04T11:32:38.100Z,42.94
2018-06-04T11:33:38.043Z,42.53
2018-06-04T11:34:37.966Z,42.82
2018-06-04T11:35:37.901Z,43.01
2018-06-04T11:36:37.833Z,41.46
2018-06-04T11:37:37.776Z,43.30
2018-06-04T11:38:37.703Z,43.60
2018-06-04T11:39:37.635Z,45.06
2018-06-04T11:40:37.570Z,45.23
2018-06-04T11:41:37.502Z,44.45
2018-06-04T11:42:37.437Z,42.53
2018-06-04T11:43:37.368Z,43.48
2018-06-04T11:44:37.314Z,45.04
2018-06-04T11:45:37.238Z,45.72
2018-06-04T11:46:37.173Z,45.81
2018-06-04T11:47:37.104Z,45.14
2018-06-04T11:48:37.041Z,46.20
2018-06-04T11:49:36.973Z,45.62
2018-06-04T11:50:36.903Z,44.82
2018-06-04T11:51:36.838Z,47.17
2018-06-04T11:52:36.780Z,47.66
2018-06-04T11:53:36.725Z,49.41
2018-06-04T11:54:36.637Z,48.25
2018-06-04T11:55:36.604Z,50.87
2018-06-04T11:56:36.553Z,51.94
2018-06-04T11:57:36.438Z,48.75
2018-06-04T11:58:36.374Z,49.44
2018-06-04T11:59:36.309Z,49.34
2018-06-04T12:00:36.277Z,47.52
2018-06-04T12:01:36.175Z,51.80
2018-06-04T12:02:36.110Z,53.09
2018-06-04T12:03:36.043Z,52.22
2018-06-04T12:04:35.975Z,46.76
2018-06-04T12:05:35.907Z,44.24
2018-06-04T12:06:35.853Z,41.32
2018-06-04T12:07:35.776Z,40.16
2018-06-04T12:08:35.710Z,39.37
2018-06-04T12:09:35.648Z,39.76
2018-06-04T12:10:35.578Z,40.25
2018-06-04T12:11:35.541Z,42.40
2018-06-04T12:12:35.445Z,43.66
2018-06-04T12:13:35.381Z,45.44
2018-06-04T12:14:35.316Z,43.19
2018-06-04T12:15:35.262Z,43.39
2018-06-04T12:16:35.185Z,44.95
2018-06-04T12:17:35.120Z,44.09
2018-06-04T12:18:35.057Z,44.68
2018-06-04T12:19:34.985Z,45.17
2018-06-04T12:20:34.932Z,47.51
2018-06-04T12:21:34.855Z,47.51
2018-06-04T12:22:34.790Z,46.46
2018-06-04T12:23:34.739Z,44.41
2018-06-04T12:24:34.659Z,45.39
2018-06-04T12:25:34.592Z,44.41
2018-06-04T12:26:34.529Z,44.21
2018-06-04T12:27:34.462Z,43.14
2018-06-04T12:28:34.398Z,42.75
2018-06-04T12:29:34.336Z,42.97
2018-06-04T12:30:34.266Z,43.65
2018-06-04T12:31:34.201Z,43.26
2018-06-04T12:32:34.136Z,46.09
2018-06-04T12:33:34.074Z,42.19
2018-06-04T12:34:34.006Z,40.92
2018-06-04T12:35:33.941Z,43.26
2018-06-04T12:36:33.879Z,46.41
2018-06-04T12:37:33.812Z,44.26
2018-06-04T12:38:33.748Z,43.77
2018-06-04T12:39:33.685Z,45.43
2018-06-04T12:40:33.618Z,43.57
2018-06-04T12:41:33.555Z,44.16
2018-06-04T12:42:33.488Z,43.48
2018-06-04T12:43:33.424Z,45.04
2018-06-04T12:44:33.362Z,43.48
2018-06-04T12:45:33.296Z,42.50
2018-06-04T12:46:33.244Z,43.48
2018-06-04T12:47:33.165Z,40.35
2018-06-04T12:48:33.105Z,39.18
2018-06-04T12:49:33.049Z,36.63
2018-06-04T12:50:32.975Z,37.32
2018-06-04T12:51:32.909Z,38.89